Data for 05/03/2018

Time Sea-Level Adjusted Pressure Absolute Pressure Temperature Relative Humidity Dew Point   
(mb) (inHg) (mb) (inHg) (C) (F) (%) (C) (F)
00:05 1018 30.06 847 25.01 7.9 46.2 52 -1.2 29.8
00:10 1018 30.06 847 25.01 7.9 46.1 52 -1.3 29.6
00:15 1018 30.06 847 25.01 7.8 46.1 52 -1.3 29.7
00:20 1018 30.06 847 25.01 7.8 46 52 -1.4 29.5
00:25 1018 30.06 847 25.01 7.7 45.9 53 -1.2 29.8
00:30 1018 30.06 847 25.01 7.7 45.8 54 -1.1 30
00:35 1018 30.06 847 25.01 7.5 45.5 54 -1.1 30.1
00:40 1018 30.06 847 25.01 7.4 45.3 55 -1 30.2
00:45 1018 30.06 847 25.01 7.3 45.1 56 -1 30.3
00:50 1018 30.06 847 25.01 7.3 45.2 53 -1.5 29.3
00:55 1018 30.06 847 25.01 7.6 45.7 53 -1.4 29.5
01:00 1018 30.06 847 25.01 7.8 46 52 -1.3 29.6
01:05 1018 30.06 847 25.01 7.8 46 52 -1.4 29.5
01:10 1018 30.06 847 25.01 7.7 45.8 52 -1.4 29.5
01:15 1018 30.06 847 25.01 7.7 45.8 52 -1.4 29.4
01:20 1018 30.06 847 25.01 7.7 45.8 53 -1.3 29.7
01:25 1018 30.06 847 25.01 7.6 45.7 53 -1.4 29.5
01:30 1018 30.06 847 25.01 7.6 45.6 53 -1.4 29.6
01:35 1018 30.06 847 25.01 7.5 45.5 54 -1.3 29.7
01:40 1018 30.06 847 25.01 7.4 45.3 54 -1.3 29.7
01:45 1018 30.06 847 25.01 7.2 45 56 -0.9 30.4
01:50 1018 30.06 847 25.01 6.9 44.4 57 -1 30.1
01:55 1018 30.06 847 25.01 6.6 43.9 59 -0.9 30.3
02:00 1018 30.06 847 25.01 6.4 43.5 59 -1 30.3
02:05 1018 30.06 847 25.01 6.3 43.4 61 -0.7 30.8
02:10 1018 30.06 847 25.01 6 42.9 62 -0.8 30.6
02:15 1018 30.06 847 25.01 5.6 42.1 63 -0.8 30.5
02:20 1018 30.06 847 25.01 5.2 41.4 65 -0.9 30.4
02:25 1018 30.06 847 25.01 5.2 41.3 65 -0.9 30.3
02:30 1018 30.06 847 25.01 5.2 41.4 64 -0.9 30.3
02:35 1018 30.06 847 25.01 5.2 41.4 65 -0.9 30.4
02:40 1018 30.06 847 25.01 5.2 41.4 65 -0.9 30.5
02:45 1018 30.06 847 25.01 5.2 41.4 63 -1.3 29.6
02:50 1018 30.06 847 25.01 5.5 41.8 61 -1.4 29.4
02:55 1018 30.06 847 25.01 5.7 42.2 59 -1.6 29.1
03:00 1018 30.06 848 25.04 5.8 42.4 60 -1.4 29.4
03:05 1018 30.06 848 25.04 5.7 42.3 60 -1.3 29.6
03:10 1019 30.09 848 25.04 5.5 42 61 -1.3 29.6
03:15 1019 30.09 848 25.04 5.6 42 60 -1.5 29.2
03:20 1019 30.09 848 25.04 5.6 42.1 60 -1.6 29.1
03:25 1019 30.09 848 25.04 5.6 42.1 61 -1.4 29.5
03:30 1019 30.09 848 25.04 5.5 42 61 -1.4 29.5
03:35 1019 30.09 848 25.04 5.6 42.1 61 -1.4 29.4
03:40 1019 30.09 848 25.04 5.7 42.3 59 -1.5 29.3
03:45 1019 30.09 848 25.04 5.9 42.6 59 -1.5 29.3
03:50 1019 30.09 848 25.04 6.1 42.9 58 -1.6 29
03:55 1019 30.09 848 25.04 6.3 43.3 56 -1.7 28.9
04:00 1019 30.09 848 25.04 6.4 43.4 58 -1.3 29.7
04:05 1019 30.09 848 25.04 6.2 43.2 60 -1 30.2
04:10 1019 30.09 848 25.04 6.1 43 60 -1 30.3
04:15 1019 30.09 848 25.04 6.2 43.1 60 -1.1 30
04:20 1019 30.09 848 25.04 6.2 43.2 58 -1.4 29.4
04:25 1019 30.09 848 25.04 6.4 43.5 57 -1.6 29.1
04:30 1019 30.09 848 25.04 6.5 43.6 57 -1.4 29.4
04:35 1019 30.09 848 25.04 6.4 43.6 58 -1.3 29.6
04:40 1019 30.09 848 25.04 6.4 43.6 58 -1.2 29.8
04:45 1019 30.09 848 25.04 6.4 43.5 58 -1.2 29.9
04:50 1019 30.09 848 25.04 6.4 43.5 58 -1.2 29.8
04:55 1019 30.09 848 25.04 6.4 43.5 58 -1.2 29.9
05:00 1019 30.09 848 25.04 6.4 43.6 59 -1 30.2
05:05 1019 30.09 848 25.04 6.5 43.6 59 -0.9 30.4
05:10 1019 30.09 849 25.07 6.2 43.2 61 -0.6 30.9
05:15 1019 30.09 849 25.07 5.9 42.6 62 -0.8 30.5
05:20 1019 30.09 849 25.07 6 42.7 61 -1 30.3
05:25 1019 30.09 849 25.07 6.1 42.9 61 -0.9 30.4
05:30 1019 30.09 849 25.07 6 42.8 61 -0.9 30.3
05:35 1019 30.09 849 25.07 5.8 42.4 62 -0.9 30.4
05:40 1019 30.09 849 25.07 5.6 42.1 64 -0.6 30.9
05:45 1020 30.12 849 25.07 5.5 41.8 65 -0.6 30.8
05:50 1020 30.12 849 25.07 5.4 41.7 64 -0.8 30.6
05:55 1020 30.12 849 25.07 5.4 41.7 64 -0.8 30.5
06:00 1020 30.12 849 25.07 5.4 41.6 63 -1.1 30.1
06:05 1020 30.12 849 25.07 5.4 41.7 64 -0.8 30.6
06:10 1020 30.12 849 25.07 5.2 41.4 65 -0.9 30.5
06:15 1020 30.12 849 25.07 5.2 41.4 64 -1 30.2
06:20 1020 30.12 849 25.07 5.3 41.5 64 -0.9 30.3
06:25 1020 30.12 849 25.07 5.4 41.7 62 -1.2 29.8
06:30 1020 30.12 849 25.07 5.7 42.2 63 -0.8 30.5
06:35 1020 30.12 849 25.07 5.8 42.5 62 -0.9 30.3
06:40 1020 30.12 849 25.07 6 42.7 62 -0.8 30.6
06:45 1020 30.12 849 25.07 6 42.9 63 -0.4 31.2
06:50 1020 30.12 850 25.1 6.1 43 62 -0.5 31
06:55 1020 30.12 850 25.1 6.2 43.2 60 -0.9 30.5
07:00 1020 30.12 850 25.1 6.5 43.7 58 -1.3 29.7
07:05 1021 30.15 850 25.1 6.7 44.1 58 -0.9 30.4
07:10 1021 30.15 850 25.1 6.7 44.1 59 -0.8 30.6
07:15 1021 30.15 850 25.1 6.7 44.1 59 -0.7 30.7
07:20 1021 30.15 850 25.1 6.6 43.9 61 -0.2 31.6
07:25 1021 30.15 850 25.1 6.4 43.5 63 -0.1 31.9
07:30 1021 30.15 850 25.1 6.4 43.5 62 -0.3 31.4
07:35 1021 30.15 850 25.1 6.6 43.8 62 -0.2 31.6
07:40 1021 30.15 850 25.1 6.6 43.8 62 -0.3 31.5
07:45 1021 30.15 850 25.1 6.7 44.1 61 -0.2 31.6
07:50 1021 30.15 850 25.1 6.9 44.4 60 -0.4 31.3
07:55 1021 30.15 850 25.1 7.1 44.8 58 -0.5 31.1
08:00 1021 30.15 850 25.1 7.4 45.3 58 -0.4 31.3
08:05 1021 30.15 850 25.1 7.6 45.7 57 -0.3 31.5
08:10 1021 30.15 850 25.1 7.8 46 57 -0.2 31.6
08:15 1021 30.15 850 25.1 8 46.4 56 -0.1 31.8
08:20 1021 30.15 850 25.1 8.1 46.6 55 -0.3 31.5
08:25 1021 30.15 850 25.1 8.3 46.9 54 -0.4 31.2
08:30 1021 30.15 850 25.1 8.6 47.4 53 -0.6 31
08:35 1021 30.15 850 25.1 9 48.2 50 -0.9 30.4
08:40 1021 30.15 850 25.1 8.8 47.9 50 -1 30.2
08:45 1021 30.15 850 25.1 9.4 48.9 48 -0.9 30.3
08:50 1021 30.15 850 25.1 9.7 49.4 46 -1.5 29.3
08:55 1021 30.15 850 25.1 10.1 50.1 44 -1.5 29.3
09:00 1021 30.15 850 25.1 11 51.9 42 -1.4 29.4
09:05 1021 30.15 850 25.1 11.5 52.7 40 -1.5 29.3
09:10 1021 30.15 850 25.1 11.6 52.8 42 -0.9 30.3
09:15 1021 30.15 850 25.1 11.6 52.9 40 -1.4 29.5
09:20 1021 30.15 850 25.1 11.4 52.6 41 -1.5 29.4
09:25 1021 30.15 850 25.1 11.9 53.4 40 -1.2 29.8
09:30 1021 30.15 850 25.1 11.6 52.8 40 -1.4 29.4
09:35 1021 30.15 850 25.1 11.8 53.2 41 -1.2 29.9
09:40 1021 30.15 850 25.1 12 53.5 39 -1.5 29.2
09:45 1021 30.15 850 25.1 12.5 54.5 39 -0.8 30.5
09:50 1021 30.15 850 25.1 12.5 54.5 39 -0.9 30.4
09:55 1021 30.15 851 25.13 12.1 53.8 39 -1.5 29.3
10:00 1021 30.15 851 25.13 12.2 53.9 39 -1.3 29.7
10:05 1021 30.15 851 25.13 12.6 54.8 38 -1.1 29.9
10:10 1021 30.15 851 25.13 12.7 54.9 39 -0.9 30.4
10:15 1021 30.15 851 25.13 12.7 54.8 38 -1.3 29.7
10:20 1021 30.15 851 25.13 12.6 54.7 39 -0.9 30.3
10:25 1022 30.18 851 25.13 12.7 54.9 38 -1.1 30
10:30 1022 30.18 851 25.13 13 55.4 37 -1.2 29.9
10:35 1022 30.18 851 25.13 13 55.4 39 -0.7 30.7
10:40 1022 30.18 851 25.13 12.1 53.8 40 -1 30.1
10:45 1022 30.18 851 25.13 12.4 54.4 39 -1.1 30.1
10:50 1022 30.18 851 25.13 12.7 54.9 37 -1.4 29.5
10:55 1022 30.18 851 25.13 13.1 55.6 37 -1.1 30
11:00 1022 30.18 851 25.13 13.3 55.9 38 -0.6 30.9
11:05 1022 30.18 851 25.13 13.4 56.1 36 -1.4 29.5
11:10 1022 30.18 851 25.13 13.8 56.8 36 -1 30.2
11:15 1022 30.18 851 25.13 14.1 57.4 35 -0.9 30.3
11:20 1022 30.18 851 25.13 14.3 57.8 36 -0.5 31.2
11:25 1022 30.18 851 25.13 14 57.1 36 -0.7 30.8
11:30 1022 30.18 851 25.13 13.7 56.6 36 -0.9 30.4
11:35 1022 30.18 851 25.13 14 57.1 35 -1.1 30
11:40 1022 30.18 851 25.13 14.7 58.4 34 -1 30.3
11:45 1022 30.18 851 25.13 14.3 57.7 36 -0.6 30.9
11:50 1022 30.18 851 25.13 14.3 57.7 36 -0.4 31.2
11:55 1022 30.18 851 25.13 14.8 58.6 34 -1 30.2
12:00 1022 30.18 851 25.13 14.9 58.9 34 -0.8 30.6
12:05 1022 30.18 851 25.13 14.7 58.5 35 -0.6 30.8
12:10 1022 30.18 851 25.13 15.3 59.5 32 -1.1 30
12:15 1022 30.18 851 25.13 15.3 59.5 33 -1 30.3
12:20 1022 30.18 851 25.13 15.6 60.1 32 -0.8 30.6
12:25 1022 30.18 851 25.13 15.8 60.4 32 -0.8 30.6
12:30 1022 30.18 851 25.13 15.7 60.3 31 -1.1 29.9
12:35 1022 30.18 851 25.13 15.9 60.6 32 -0.8 30.6
12:40 1022 30.18 851 25.13 15.8 60.4 33 -0.5 31.1
12:45 1022 30.18 851 25.13 15.2 59.3 32 -1.4 29.5
12:50 1022 30.18 851 25.13 15.4 59.7 32 -1.1 30.1
12:55 1022 30.18 851 25.13 15.3 59.5 32 -1.3 29.7
13:00 1022 30.18 851 25.13 15.5 59.9 32 -1.1 30
13:05 1022 30.18 851 25.13 16.4 61.5 30 -1.3 29.6
13:10 1022 30.18 851 25.13 15.7 60.3 31 -1.2 29.8
13:15 1022 30.18 851 25.13 14.9 58.9 33 -1.1 29.9
13:20 1022 30.18 851 25.13 15 59 33 -1.2 29.8
13:25 1022 30.18 851 25.13 14.9 58.7 33 -1.3 29.6
13:30 1022 30.18 851 25.13 14.7 58.4 32 -1.6 29.1
13:35 1022 30.18 851 25.13 14.9 58.9 33 -1.2 29.9
13:40 1022 30.18 851 25.13 15.6 60.1 31 -1.4 29.4
13:45 1022 30.18 851 25.13 16.4 61.5 29 -1.4 29.5
13:50 1022 30.18 851 25.13 16.7 62.1 28 -1.7 29
13:55 1022 30.18 851 25.13 17 62.6 27 -2 28.3
14:00 1022 30.18 851 25.13 15.8 60.5 30 -1.7 29
14:05 1022 30.18 851 25.13 15.1 59.1 30 -2.4 27.6
14:10 1022 30.18 851 25.13 15.7 60.2 30 -1.9 28.5
14:15 1022 30.18 851 25.13 15.3 59.6 30 -2.2 28.1
14:20 1022 30.18 851 25.13 15.8 60.5 29 -2.1 28.2
14:25 1022 30.18 851 25.13 16.2 61.2 30 -1.2 29.8
14:30 1022 30.18 851 25.13 15.5 60 31 -1.3 29.7
14:35 1022 30.18 851 25.13 16 60.7 29 -2.1 28.2
14:40 1022 30.18 851 25.13 17.1 62.7 26 -2.4 27.6
14:45 1022 30.18 851 25.13 18 64.3 25 -2.3 27.9
14:50 1022 30.18 851 25.13 17.2 62.9 26 -2.4 27.7
14:55 1022 30.18 851 25.13 16.9 62.5 26 -2.7 27.2
15:00 1022 30.18 851 25.13 17.2 62.9 25 -2.7 27.2
15:05 1022 30.18 851 25.13 17 62.6 26 -2.8 27
15:10 1022 30.18 851 25.13 16.5 61.8 25 -3.4 25.8
15:15 1022 30.18 851 25.13 15.9 60.5 26 -3.5 25.8
15:20 1022 30.18 851 25.13 16 60.9 27 -3.1 26.4
15:25 1022 30.18 851 25.13 17.2 63 25 -3.1 26.5
15:30 1022 30.18 851 25.13 17.1 62.8 25 -3 26.6
15:35 1022 30.18 851 25.13 16.8 62.3 24 -3.5 25.7
15:40 1022 30.18 851 25.13 17.2 62.9 25 -2.8 26.9
15:45 1021 30.15 851 25.13 17.4 63.3 23 -3.9 25.1
15:50 1021 30.15 851 25.13 18.1 64.5 23 -3.3 26
15:55 1021 30.15 851 25.13 18.5 65.3 22 -3.2 26.2
16:00 1021 30.15 851 25.13 18.4 65.1 23 -2.9 26.8
16:05 1021 30.15 851 25.13 17.8 64 23 -3.3 26
16:10 1021 30.15 851 25.13 17.7 63.8 23 -3.4 25.8
16:15 1021 30.15 851 25.13 18.1 64.6 24 -2.9 26.8
16:20 1021 30.15 851 25.13 17.9 64.3 24 -2.7 27.1
16:25 1021 30.15 851 25.13 18.3 64.9 23 -3.3 26.1
16:30 1021 30.15 850 25.1 18.4 65.2 23 -3.1 26.5
16:35 1021 30.15 850 25.1 18.7 65.7 22 -3.1 26.4
16:40 1021 30.15 850 25.1 19 66.2 22 -3 26.7
16:45 1021 30.15 850 25.1 18.7 65.6 22 -3.1 26.5
16:50 1021 30.15 850 25.1 18 64.4 24 -2.9 26.7
16:55 1021 30.15 850 25.1 18 64.3 24 -2.9 26.8
17:00 1021 30.15 850 25.1 18 64.3 22 -3.9 25
17:05 1021 30.15 850 25.1 18.1 64.6 22 -4 24.8
17:10 1021 30.15 850 25.1 18.4 65.1 22 -3.8 25.2
17:15 1021 30.15 850 25.1 18.8 65.8 20 -4.6 23.7
17:20 1021 30.15 850 25.1 18.1 64.6 22 -3.8 25.2
17:25 1021 30.15 850 25.1 17.4 63.3 23 -3.8 25.1
17:30 1021 30.15 850 25.1 17.4 63.3 23 -4 24.7
17:35 1021 30.15 850 25.1 17.9 64.3 22 -4.1 24.7
17:40 1021 30.15 850 25.1 18.6 65.5 20 -4.9 23.3
17:45 1021 30.15 850 25.1 18.7 65.7 19 -5 23
17:50 1021 30.15 850 25.1 19 66.1 20 -4.1 24.7
17:55 1021 30.15 850 25.1 18.9 66 19 -5 22.9
18:00 1021 30.15 850 25.1 18.9 66 21 -4.1 24.6
18:05 1021 30.15 850 25.1 18.5 65.3 20 -4.6 23.8
18:10 1021 30.15 850 25.1 18.2 64.7 22 -3.7 25.4
18:15 1021 30.15 850 25.1 18.4 65 21 -4 24.8
18:20 1021 30.15 850 25.1 18.1 64.6 22 -4 24.8
18:25 1021 30.15 850 25.1 18.5 65.3 20 -4.5 24
18:30 1021 30.15 850 25.1 18.6 65.5 19 -5.2 22.7
18:35 1021 30.15 850 25.1 18.3 64.9 21 -4.4 24.1
18:40 1021 30.15 850 25.1 18.2 64.7 19 -5.6 22
18:45 1021 30.15 850 25.1 17.9 64.3 20 -5.4 22.2
18:50 1021 30.15 850 25.1 17.7 63.8 19 -6.1 21.1
18:55 1021 30.15 850 25.1 17.6 63.7 19 -5.9 21.3
19:00 1021 30.15 850 25.1 17.5 63.5 20 -5.7 21.7
19:05 1021 30.15 850 25.1 17.5 63.4 20 -5.5 22.1
19:10 1021 30.15 850 25.1 17.4 63.4 22 -4.1 24.5
19:15 1021 30.15 850 25.1 17.4 63.4 23 -3.6 25.5
19:20 1021 30.15 850 25.1 17.2 62.9 25 -2.8 27
19:25 1021 30.15 850 25.1 17.2 62.9 24 -3.3 26
19:30 1021 30.15 850 25.1 17.1 62.9 22 -4.4 24
19:35 1021 30.15 850 25.1 17.1 62.8 22 -4.7 23.5
19:40 1021 30.15 850 25.1 17.1 62.7 22 -5 23
19:45 1021 30.15 850 25.1 17 62.6 22 -5.1 22.9
19:50 1021 30.15 850 25.1 16.9 62.4 22 -5 23
19:55 1021 30.15 850 25.1 16.9 62.3 22 -4.6 23.7
20:00 1021 30.15 850 25.1 16.8 62.2 24 -4 24.9
20:05 1021 30.15 850 25.1 16.6 61.8 25 -3.6 25.5
20:10 1021 30.15 850 25.1 16.3 61.3 27 -2.7 27.1
20:15 1021 30.15 850 25.1 16 60.8 27 -2.7 27.1
20:20 1021 30.15 850 25.1 15.8 60.5 28 -2.6 27.3
20:25 1021 30.15 850 25.1 15.6 60.1 29 -2.4 27.7
20:30 1021 30.15 850 25.1 15.5 59.9 29 -2.4 27.7
20:35 1021 30.15 851 25.13 15.4 59.7 29 -2.4 27.7
20:40 1021 30.15 851 25.13 15.3 59.5 29 -2.3 27.8
20:45 1021 30.15 851 25.13 15.2 59.4 30 -2.4 27.7
20:50 1021 30.15 851 25.13 15.2 59.3 29 -2.6 27.4
20:55 1021 30.15 851 25.13 14.7 58.5 33 -1.4 29.6
21:00 1021 30.15 851 25.13 13.8 56.8 38 -0.4 31.3
21:05 1021 30.15 851 25.13 13.1 55.7 39 -0.3 31.4
21:10 1022 30.18 851 25.13 12.7 54.8 41 -0 32
21:15 1022 30.18 851 25.13 12.3 54.2 42 -0.3 31.5
21:20 1022 30.18 851 25.13 12 53.7 41 -0.6 30.9
21:25 1022 30.18 851 25.13 11.7 53.1 42 -0.8 30.6
21:30 1022 30.18 851 25.13 11.6 53 41 -1.1 30
21:35 1022 30.18 851 25.13 11.5 52.7 41 -1.2 29.8
21:40 1022 30.18 851 25.13 11.4 52.5 41 -1.4 29.5
21:45 1022 30.18 851 25.13 11.3 52.3 41 -1.5 29.2
21:50 1022 30.18 851 25.13 11.3 52.4 41 -1.5 29.3
21:55 1022 30.18 851 25.13 11.3 52.3 41 -1.3 29.7
22:00 1022 30.18 851 25.13 11.3 52.3 41 -1.5 29.4
22:05 1022 30.18 851 25.13 11.3 52.3 41 -1.4 29.4
22:10 1022 30.18 851 25.13 11.3 52.3 41 -1.4 29.5
22:15 1022 30.18 851 25.13 11.2 52.1 41 -1.6 29.2
22:20 1022 30.18 851 25.13 11 51.8 44 -0.8 30.5
22:25 1022 30.18 851 25.13 10.4 50.7 46 -0.7 30.7
22:30 1022 30.18 851 25.13 10.1 50.2 44 -1.5 29.3
22:35 1022 30.18 852 25.16 10.3 50.6 45 -0.9 30.4
22:40 1022 30.18 852 25.16 10.4 50.7 44 -1.2 29.9
22:45 1022 30.18 852 25.16 10.2 50.4 45 -1.1 30
22:50 1022 30.18 852 25.16 10 50 44 -1.6 29.1
22:55 1023 30.21 852 25.16 9.9 49.7 46 -1.1 30
23:00 1023 30.21 852 25.16 9.7 49.5 45 -1.5 29.3
23:05 1023 30.21 852 25.16 9.8 49.7 45 -1.6 29.1
23:10 1023 30.21 852 25.16 10 49.9 44 -1.8 28.7
23:15 1023 30.21 852 25.16 10.2 50.3 44 -1.3 29.6
23:20 1023 30.21 852 25.16 10.2 50.3 46 -1 30.2
23:25 1023 30.21 852 25.16 9.8 49.6 45 -1.4 29.4
23:30 1023 30.21 852 25.16 9.6 49.3 46 -1.3 29.6
23:35 1023 30.21 852 25.16 9.6 49.4 47 -1.1 30.1
23:40 1023 30.21 852 25.16 9.6 49.4 47 -1 30.3
23:45 1023 30.21 852 25.16 9.7 49.4 48 -0.9 30.4
23:50 1023 30.21 852 25.16 9.7 49.4 48 -0.9 30.3
23:55 1023 30.21 852 25.16 9.5 49.1 49 -0.6 31
24:00 1023 30.21 852 25.16 9.3 48.7 49 -0.8 30.5